< Cyclone 201608 2016 Season Cyclone 201610 >
Cyclone 201609 (Uriah)
General InformationDetailed Track InformationTrack Information on Google MapsList of All Images || ResourceGoogle EarthGE AnimationAtom FeedGeoJSON
Detalied Best Track Wind (Time Zone = UTC)
Year Month Day Hour Lat. Long. Wind (kt) Gust (kt) Direc. of Major Storm Axis Radius of Major Storm Axis (nm) Radius of Minor Storm Axis (nm) Direc. of Major Gale Axis Radius of Major Gale Axis (nm) Radius of Minor Gale Axis (nm) Image
2016 2 9 00 -11.6 94.0 20 45 symmetric - - symmetric - - Image
2016 2 9 06 -11.8 94.0 20 45 symmetric - - symmetric - - Image
2016 2 9 12 -13.1 93.4 20 45 symmetric - - symmetric - - Image
2016 2 10 00 -11.5 93.9 15 45 symmetric - - symmetric - - Image
2016 2 10 06 -11.6 94.7 15 45 symmetric - - symmetric - - Image
2016 2 10 12 -11.1 93.5 20 45 symmetric - - symmetric - - Image
2016 2 10 18 -10.3 94.2 20 45 symmetric - - symmetric - - Image
2016 2 11 00 -10.4 94.8 20 40 symmetric - - symmetric - - Image
2016 2 11 06 -9.9 95.7 25 45 symmetric - - symmetric - - Image
2016 2 12 00 -10.2 97.9 25 45 symmetric - - symmetric - - Image
2016 2 12 06 -10.6 97.2 25 45 symmetric - - symmetric - - Image
2016 2 12 12 -11.0 96.8 30 45 symmetric - - symmetric - - Image
2016 2 12 18 -11.4 96.3 30 45 symmetric - - symmetric - - Image
2016 2 13 00 -11.9 95.8 30 45 symmetric - - symmetric - - Image
2016 2 13 06 -12.1 94.8 30 45 symmetric - - symmetric - - Image
2016 2 13 12 -12.5 94.2 35 50 symmetric - - symmetric - - Image
2016 2 13 18 -13.0 93.2 45 65 symmetric - - symmetric - - Image
2016 2 14 00 -13.7 92.0 50 70 symmetric - - symmetric - - Image
2016 2 14 06 -14.4 91.2 50 70 symmetric - - symmetric - - Image
2016 2 14 12 -15.0 90.3 50 70 symmetric - - symmetric - - Image
< Cyclone 201608 2016 Season Cyclone 201610 >

Help